Time;durP1;ratioP1;P1;durP2;ratioP2;P2;SDS_P1;SDS_P2;PMS_P1;PMS_P2;Temp;Humidity;BMP_temperature;BMP_pressure;BME280_temperature;BME280_humidity;BME280_pressure;Samples;Min_cycle;Max_cycle;Signal;HPM_P1;HPM_P2
2021/07/08 00:00:44;;;;;;;8.35;3.20;;;16.60;99.90;;;;;;4997279;28;20091;-74
2021/07/08 00:03:12;;;;;;;7.63;3.20;;;16.60;99.90;;;;;;4978045;28;20116;-74
2021/07/08 00:05:41;;;;;;;7.32;3.10;;;16.60;99.90;;;;;;4981171;28;20052;-73
2021/07/08 00:08:06;;;;;;;7.63;3.13;;;16.60;99.90;;;;;;4995995;28;20026;-74
2021/07/08 00:10:36;;;;;;;8.48;2.90;;;16.50;99.90;;;;;;4976508;28;20050;-74
2021/07/08 00:13:06;;;;;;;7.88;3.08;;;16.40;99.90;;;;;;4976578;28;20033;-73
2021/07/08 00:15:32;;;;;;;6.57;3.20;;;16.40;99.90;;;;;;4997945;28;20502;-74
2021/07/08 00:17:58;;;;;;;7.35;3.00;;;16.40;99.90;;;;;;4998602;28;20041;-73
2021/07/08 00:20:25;;;;;;;5.70;2.70;;;16.40;99.90;;;;;;4976584;28;20397;-74
2021/07/08 00:22:50;;;;;;;8.45;3.25;;;16.30;99.90;;;;;;4996889;28;20471;-73
2021/07/08 00:25:26;;;;;;;8.30;2.80;;;16.40;99.90;;;;;;4975777;28;20040;-73
2021/07/08 00:27:52;;;;;;;7.53;2.90;;;16.40;99.90;;;;;;4985316;28;20033;-73
2021/07/08 00:30:20;;;;;;;8.27;3.03;;;16.30;99.90;;;;;;4977052;28;20498;-74
2021/07/08 00:32:46;;;;;;;7.10;2.80;;;16.30;99.90;;;;;;4997102;28;20022;-74
2021/07/08 00:35:12;;;;;;;7.90;3.20;;;16.40;99.90;;;;;;4976527;28;20421;-73
2021/07/08 00:37:37;;;;;;;7.40;3.10;;;16.40;99.90;;;;;;4980764;28;20045;-73
2021/07/08 00:40:09;;;;;;;8.82;3.08;;;16.40;99.90;;;;;;4976558;28;20038;-74
2021/07/08 00:42:35;;;;;;;9.15;2.97;;;16.40;99.90;;;;;;4981094;28;20042;-73
2021/07/08 00:45:01;;;;;;;7.03;2.90;;;16.40;99.90;;;;;;4995544;28;20034;-73
2021/07/08 00:47:27;;;;;;;7.03;2.83;;;16.40;99.90;;;;;;4960162;28;20506;-74
2021/07/08 00:49:55;;;;;;;6.30;2.90;;;16.40;99.90;;;;;;4996113;28;20117;-73
2021/07/08 00:52:23;;;;;;;8.40;3.45;;;16.40;99.90;;;;;;4976920;28;20076;-74
2021/07/08 00:54:49;;;;;;;7.00;3.08;;;16.40;99.90;;;;;;4983682;28;20037;-73
2021/07/08 00:57:14;;;;;;;7.22;3.13;;;16.40;99.90;;;;;;4994881;28;20077;-73
2021/07/08 00:59:44;;;;;;;8.73;3.08;;;16.40;99.90;;;;;;4995989;28;21605;-73
2021/07/08 01:02:13;;;;;;;10.27;3.50;;;16.40;99.90;;;;;;4960453;28;20029;-73
2021/07/08 01:04:42;;;;;;;9.43;3.40;;;16.40;99.90;;;;;;4979226;28;20037;-73
2021/07/08 01:07:08;;;;;;;8.70;3.30;;;16.40;99.90;;;;;;4962082;28;20109;-74
2021/07/08 01:09:33;;;;;;;6.28;3.15;;;16.30;99.90;;;;;;4997491;28;20044;-68
2021/07/08 01:12:01;;;;;;;7.45;3.10;;;16.30;99.90;;;;;;4976112;28;20065;-68
2021/07/08 01:14:29;;;;;;;6.63;3.10;;;16.30;99.90;;;;;;4995592;28;20562;-69
2021/07/08 01:16:57;;;;;;;7.35;2.80;;;16.30;99.90;;;;;;4995525;28;20064;-68
2021/07/08 01:19:26;;;;;;;6.60;3.03;;;16.30;99.90;;;;;;4992875;28;20033;-69
2021/07/08 01:21:52;;;;;;;7.85;3.30;;;16.30;99.90;;;;;;4977192;28;20058;-69
2021/07/08 01:24:20;;;;;;;6.22;2.63;;;16.30;99.90;;;;;;4995434;28;20136;-69
2021/07/08 01:26:48;;;;;;;6.95;2.90;;;16.30;99.90;;;;;;4962224;28;20037;-69
2021/07/08 01:29:16;;;;;;;6.45;3.20;;;16.20;99.90;;;;;;4992674;28;20030;-68
2021/07/08 01:31:42;;;;;;;9.30;3.30;;;16.20;99.90;;;;;;4995573;28;20030;-68
2021/07/08 01:34:07;;;;;;;6.40;3.10;;;16.20;99.90;;;;;;4996174;28;20018;-68
2021/07/08 01:36:33;;;;;;;6.43;3.13;;;16.20;99.90;;;;;;4996207;28;20026;-68
2021/07/08 01:38:58;;;;;;;5.85;2.80;;;16.20;99.90;;;;;;4996258;28;20022;-68
2021/07/08 01:41:24;;;;;;;7.90;3.28;;;16.20;99.90;;;;;;4995162;28;20675;-69
2021/07/08 01:43:55;;;;;;;7.68;3.20;;;16.20;99.90;;;;;;4990837;28;20061;-69
2021/07/08 01:46:20;;;;;;;7.32;3.10;;;16.20;99.90;;;;;;4982830;28;20514;-69
2021/07/08 01:48:46;;;;;;;8.77;3.00;;;16.10;99.90;;;;;;4976300;28;20030;-68
2021/07/08 01:51:34;;;;;;;6.35;3.20;;;16.20;99.90;;;;;;4995777;28;20117;-68
2021/07/08 01:54:03;;;;;;;8.45;3.38;;;16.10;99.90;;;;;;4980557;28;20026;-68
2021/07/08 01:56:29;;;;;;;8.38;3.20;;;16.10;99.90;;;;;;4995381;28;20058;-68
2021/07/08 01:58:55;;;;;;;6.70;3.13;;;16.10;99.90;;;;;;4962167;28;20672;-68
2021/07/08 02:01:25;;;;;;;8.40;3.00;;;16.10;99.90;;;;;;4983333;28;20069;-68
2021/07/08 02:03:55;;;;;;;6.57;3.10;;;16.10;99.90;;;;;;4992776;28;20026;-68
2021/07/08 02:06:21;;;;;;;8.60;3.30;;;16.10;99.90;;;;;;4979680;28;20060;-68
2021/07/08 02:08:47;;;;;;;7.82;3.28;;;16.10;99.90;;;;;;4978770;28;20630;-68
2021/07/08 02:11:15;;;;;;;7.78;3.50;;;16.10;99.90;;;;;;4983835;28;20061;-68
2021/07/08 02:13:43;;;;;;;7.15;3.50;;;16.10;99.90;;;;;;4999899;28;20037;-68
2021/07/08 02:16:10;;;;;;;11.32;3.25;;;16.10;99.90;;;;;;4986984;28;20026;-68
2021/07/08 02:18:40;;;;;;;6.53;3.25;;;16.10;99.90;;;;;;4983677;28;20033;-68
2021/07/08 02:21:06;;;;;;;7.30;3.20;;;16.10;99.90;;;;;;4999757;28;20033;-69
2021/07/08 02:23:32;;;;;;;7.70;3.28;;;16.10;99.90;;;;;;4999708;28;20033;-68
2021/07/08 02:26:00;;;;;;;6.28;3.03;;;16.10;99.90;;;;;;4998380;28;20034;-68
2021/07/08 02:28:26;;;;;;;6.53;3.20;;;16.10;99.90;;;;;;4999207;28;20033;-68
2021/07/08 02:30:54;;;;;;;7.60;3.42;;;16.10;99.90;;;;;;5000149;28;20081;-68
2021/07/08 02:33:20;;;;;;;6.35;3.10;;;16.10;99.90;;;;;;4998422;28;21907;-69
2021/07/08 02:35:45;;;;;;;6.82;3.25;;;16.00;99.90;;;;;;4979228;28;20026;-68
2021/07/08 02:38:11;;;;;;;6.03;3.30;;;16.10;99.90;;;;;;4999685;28;20041;-68
2021/07/08 02:40:42;;;;;;;14.60;3.72;;;16.10;99.90;;;;;;4982746;28;20045;-68
2021/07/08 02:43:10;;;;;;;7.30;3.17;;;16.10;99.90;;;;;;4967078;28;20034;-68
2021/07/08 02:45:40;;;;;;;7.32;3.00;;;16.10;99.90;;;;;;4998856;28;20041;-68
2021/07/08 02:48:08;;;;;;;7.22;3.00;;;16.10;99.90;;;;;;4982335;28;20034;-68
2021/07/08 02:50:36;;;;;;;7.47;3.15;;;16.10;99.90;;;;;;4998958;28;20029;-69
2021/07/08 02:53:04;;;;;;;7.68;3.28;;;16.10;99.90;;;;;;4994656;28;20033;-68
2021/07/08 02:55:32;;;;;;;8.75;3.72;;;16.10;99.90;;;;;;4998286;28;20041;-68
2021/07/08 02:57:59;;;;;;;6.82;3.30;;;16.20;99.90;;;;;;4979125;28;20060;-68
2021/07/08 03:00:27;;;;;;;7.60;3.47;;;16.20;99.90;;;;;;4991130;28;20034;-68
2021/07/08 03:02:55;;;;;;;6.85;3.10;;;16.20;99.90;;;;;;4977743;28;20034;-68
2021/07/08 03:05:27;;;;;;;5.20;2.80;;;16.20;99.90;;;;;;4964616;28;20037;-68
2021/07/08 03:07:54;;;;;;;;;;;16.20;99.90;;;;;;4979400;28;20030;-68
2021/07/08 03:10:23;;;;;;;7.10;3.15;;;16.10;99.90;;;;;;4998086;28;19918;-68
2021/07/08 03:12:48;;;;;;;6.15;3.00;;;16.10;99.90;;;;;;4993747;28;20034;-68
2021/07/08 03:15:17;;;;;;;6.43;3.22;;;16.10;99.90;;;;;;4977493;28;20111;-68
2021/07/08 03:17:44;;;;;;;6.07;3.15;;;16.10;99.90;;;;;;4978663;28;20056;-68
2021/07/08 03:20:16;;;;;;;7.95;2.97;;;16.10;99.90;;;;;;4980912;28;20048;-68
2021/07/08 03:22:42;;;;;;;7.73;3.03;;;16.10;99.90;;;;;;4977677;28;20026;-68
2021/07/08 03:25:08;;;;;;;6.00;2.83;;;16.10;99.90;;;;;;4962743;28;20288;-69
2021/07/08 03:27:34;;;;;;;5.28;3.00;;;16.20;99.90;;;;;;4994660;28;21879;-69
2021/07/08 03:30:04;;;;;;;6.70;3.33;;;16.20;99.90;;;;;;4997260;28;20026;-68
2021/07/08 03:32:32;;;;;;;7.65;2.70;;;16.20;99.90;;;;;;4981853;28;20037;-68
2021/07/08 03:34:58;;;;;;;6.63;3.15;;;16.20;99.90;;;;;;4998736;28;20018;-68
2021/07/08 03:37:26;;;;;;;7.40;3.30;;;16.20;99.90;;;;;;4966999;28;20096;-68
2021/07/08 03:39:52;;;;;;;6.75;3.17;;;16.30;99.90;;;;;;4981750;28;20037;-69
2021/07/08 03:42:20;;;;;;;7.13;3.30;;;16.30;99.90;;;;;;4981931;28;20455;-69
2021/07/08 03:44:46;;;;;;;5.75;3.13;;;16.30;99.90;;;;;;4997815;28;20033;-68
2021/07/08 03:47:15;;;;;;;6.32;3.25;;;16.30;99.90;;;;;;4997505;28;20044;-68
2021/07/08 03:49:44;;;;;;;6.18;3.30;;;16.30;99.90;;;;;;4997645;28;20095;-68
2021/07/08 03:52:09;;;;;;;7.40;3.20;;;16.30;99.90;;;;;;4997254;28;20045;-69
2021/07/08 03:54:40;;;;;;;7.07;3.28;;;16.40;99.90;;;;;;4997703;28;20057;-68
2021/07/08 03:57:05;;;;;;;6.72;3.40;;;16.40;99.90;;;;;;4997249;28;20084;-68
2021/07/08 03:59:31;;;;;;;6.47;3.15;;;16.40;99.90;;;;;;4984245;28;20125;-68
2021/07/08 04:01:57;;;;;;;8.25;3.10;;;16.40;99.90;;;;;;4996941;28;20036;-68
2021/07/08 04:04:22;;;;;;;6.38;3.15;;;16.40;99.90;;;;;;4993186;28;20113;-68
2021/07/08 04:06:50;;;;;;;7.75;3.30;;;16.40;99.90;;;;;;4983608;28;20057;-69
2021/07/08 04:09:18;;;;;;;6.93;3.28;;;16.40;99.90;;;;;;4993699;28;20037;-68
2021/07/08 04:11:46;;;;;;;6.03;3.13;;;16.50;99.90;;;;;;4977812;28;20032;-68
2021/07/08 04:14:12;;;;;;;6.68;3.10;;;16.50;99.90;;;;;;4996300;28;20030;-68
2021/07/08 04:16:37;;;;;;;5.13;2.95;;;16.50;99.90;;;;;;4998061;28;20510;-68
2021/07/08 04:19:06;;;;;;;5.80;2.90;;;16.50;99.90;;;;;;4962380;28;20032;-68
2021/07/08 04:21:33;;;;;;;6.32;3.10;;;16.50;99.90;;;;;;4980527;28;20025;-68
2021/07/08 04:24:01;;;;;;;6.55;3.08;;;16.60;99.90;;;;;;4996619;28;20022;-68
2021/07/08 04:26:27;;;;;;;6.15;3.00;;;16.60;99.90;;;;;;4981420;28;20065;-68
2021/07/08 04:28:52;;;;;;;6.40;3.22;;;16.60;99.90;;;;;;4981748;28;20044;-69
2021/07/08 04:31:20;;;;;;;6.30;2.92;;;16.60;99.90;;;;;;4995806;28;20411;-69
2021/07/08 04:33:48;;;;;;;7.03;2.92;;;16.70;99.90;;;;;;4980808;28;20038;-69
2021/07/08 04:36:13;;;;;;;5.57;3.08;;;16.70;99.90;;;;;;4996490;28;20022;-68
2021/07/08 04:38:47;;;;;;;6.60;3.10;;;16.70;99.90;;;;;;4997363;28;20498;-68
2021/07/08 04:41:15;;;;;;;5.38;2.80;;;16.70;99.90;;;;;;4964290;28;20037;-69
2021/07/08 04:43:40;;;;;;;7.22;3.20;;;16.80;99.90;;;;;;4983199;28;20040;-68
2021/07/08 04:46:08;;;;;;;5.68;3.10;;;16.80;99.90;;;;;;4996515;28;20034;-69
2021/07/08 04:48:36;;;;;;;6.20;3.05;;;16.80;99.90;;;;;;4977206;28;20025;-69
2021/07/08 04:51:03;;;;;;;6.70;3.10;;;16.80;99.90;;;;;;4993498;28;20049;-68
2021/07/08 04:53:28;;;;;;;5.55;3.38;;;16.80;99.90;;;;;;4981058;28;20030;-69
2021/07/08 04:55:54;;;;;;;6.18;3.08;;;16.80;99.90;;;;;;4996423;28;20045;-69
2021/07/08 04:58:22;;;;;;;6.97;3.40;;;16.90;99.90;;;;;;4964383;28;20625;-68
2021/07/08 05:00:48;;;;;;;6.20;3.20;;;16.90;99.90;;;;;;4996255;28;20088;-69
2021/07/08 05:03:16;;;;;;;5.53;3.13;;;16.90;99.90;;;;;;4996693;28;20574;-68
2021/07/08 05:05:41;;;;;;;7.25;3.42;;;16.90;99.90;;;;;;4963380;28;20034;-68
2021/07/08 05:08:07;;;;;;;5.18;3.30;;;16.90;99.90;;;;;;4979846;28;20530;-69
2021/07/08 05:10:35;;;;;;;5.55;3.58;;;17.00;99.90;;;;;;4980104;28;20058;-68
2021/07/08 05:13:00;;;;;;;6.13;3.03;;;17.00;99.90;;;;;;4995436;28;20443;-68
2021/07/08 05:15:28;;;;;;;7.32;3.38;;;17.10;99.90;;;;;;4997147;28;20032;-69
2021/07/08 05:17:56;;;;;;;4.85;2.97;;;17.10;99.90;;;;;;4980186;28;20057;-69
2021/07/08 05:20:22;;;;;;;5.82;3.20;;;17.20;99.90;;;;;;4996035;28;21454;-69
2021/07/08 05:22:58;;;;;;;6.07;3.22;;;17.20;99.90;;;;;;4995955;28;20615;-69
2021/07/08 05:25:29;;;;;;;4.80;2.92;;;17.20;99.90;;;;;;4995865;28;20052;-68
2021/07/08 05:27:54;;;;;;;5.50;3.00;;;17.30;99.90;;;;;;4994812;28;20034;-69
2021/07/08 05:30:20;;;;;;;4.88;2.95;;;17.30;99.90;;;;;;4963113;28;20060;-69
2021/07/08 05:32:46;;;;;;;5.03;2.88;;;17.40;99.90;;;;;;4968093;28;20061;-69
2021/07/08 05:35:16;;;;;;;6.03;3.03;;;17.40;99.90;;;;;;4994921;28;20109;-68
2021/07/08 05:37:42;;;;;;;6.50;3.13;;;17.50;99.90;;;;;;4976575;28;20479;-68
2021/07/08 05:40:08;;;;;;;6.97;2.95;;;17.50;99.90;;;;;;4992493;28;20042;-68
2021/07/08 05:42:33;;;;;;;5.35;2.90;;;17.60;99.90;;;;;;4980591;28;20068;-68
2021/07/08 05:45:02;;;;;;;5.40;3.08;;;17.60;99.90;;;;;;4978618;28;20553;-69
2021/07/08 05:47:28;;;;;;;6.10;3.25;;;17.70;99.90;;;;;;4963633;28;20026;-68
2021/07/08 05:49:56;;;;;;;5.43;2.92;;;17.70;99.90;;;;;;4967544;28;20034;-68
2021/07/08 05:52:21;;;;;;;5.57;2.80;;;17.70;99.90;;;;;;4999559;28;20030;-69
2021/07/08 05:54:47;;;;;;;6.00;3.20;;;17.80;99.90;;;;;;4983728;28;20032;-69
2021/07/08 05:57:15;;;;;;;5.00;2.90;;;17.80;99.90;;;;;;4999444;28;20484;-68
2021/07/08 05:59:40;;;;;;;7.68;3.20;;;17.80;99.90;;;;;;4971067;28;20030;-69
2021/07/08 06:02:08;;;;;;;6.10;2.60;;;17.90;99.90;;;;;;4999537;28;20091;-69
2021/07/08 06:04:41;;;;;;;5.20;2.80;;;18.00;99.90;;;;;;4979015;28;20034;-69
2021/07/08 06:07:07;;;;;;;7.28;3.10;;;18.00;99.90;;;;;;4998977;28;20034;-69
2021/07/08 06:09:35;;;;;;;5.05;2.70;;;18.00;99.90;;;;;;4995142;28;21880;-69
2021/07/08 06:12:02;;;;;;;5.20;2.90;;;18.10;99.90;;;;;;4979734;28;20068;-69
2021/07/08 06:14:31;;;;;;;6.07;2.85;;;18.20;99.90;;;;;;4979334;28;20117;-68
2021/07/08 06:16:56;;;;;;;4.95;2.90;;;18.30;99.90;;;;;;4980042;28;20036;-69
2021/07/08 06:19:27;;;;;;;6.47;2.80;;;18.30;99.90;;;;;;4979044;28;20030;-68
2021/07/08 06:21:52;;;;;;;4.78;2.60;;;18.40;99.90;;;;;;4998797;28;20069;-69
2021/07/08 06:24:18;;;;;;;5.47;2.65;;;18.50;99.90;;;;;;4998918;28;20243;-68
2021/07/08 06:27:20;;;;;;;5.50;2.95;;;18.60;99.90;;;;;;4978307;28;20487;-69
2021/07/08 06:29:46;;;;;;;;;;;18.70;99.90;;;;;;4999313;28;20040;-69
2021/07/08 06:32:15;;;;;;;5.20;2.85;;;18.70;99.90;;;;;;4998279;28;19913;-68
2021/07/08 06:34:41;;;;;;;5.85;2.90;;;18.90;99.90;;;;;;4999043;28;20444;-68
2021/07/08 06:37:07;;;;;;;4.82;2.80;;;18.90;99.90;;;;;;4981983;28;20044;-69
2021/07/08 06:39:35;;;;;;;5.97;2.78;;;19.00;99.90;;;;;;4982506;28;20117;-68
2021/07/08 06:42:00;;;;;;;5.10;2.90;;;19.10;99.90;;;;;;4965899;28;20033;-69
2021/07/08 06:44:26;;;;;;;5.03;3.10;;;19.20;99.90;;;;;;4998859;28;20579;-68
2021/07/08 06:46:54;;;;;;;6.20;2.70;;;19.30;99.90;;;;;;4998290;28;20037;-69
2021/07/08 06:49:20;;;;;;;5.40;2.85;;;19.30;99.90;;;;;;4997261;28;20105;-68
2021/07/08 06:51:48;;;;;;;5.32;2.90;;;19.40;99.90;;;;;;4997934;28;20574;-69
2021/07/08 06:54:14;;;;;;;7.38;3.17;;;19.40;99.90;;;;;;4978434;28;20053;-68
2021/07/08 06:56:47;;;;;;;5.60;2.90;;;19.50;99.90;;;;;;4995292;28;20120;-68
2021/07/08 06:59:15;;;;;;;6.30;2.75;;;19.50;99.90;;;;;;4979192;28;20025;-69
2021/07/08 07:01:40;;;;;;;6.03;3.25;;;19.60;99.90;;;;;;4982993;28;20041;-68
2021/07/08 07:04:06;;;;;;;6.13;2.70;;;19.60;99.90;;;;;;4986021;28;20393;-69
2021/07/08 07:06:32;;;;;;;5.65;3.00;;;19.70;99.90;;;;;;4998664;28;20034;-69
2021/07/08 07:08:57;;;;;;;4.25;2.92;;;19.80;99.90;;;;;;4997790;28;20481;-69
2021/07/08 07:11:25;;;;;;;6.50;3.33;;;19.80;99.90;;;;;;4998773;28;20036;-69
2021/07/08 07:13:51;;;;;;;5.00;3.00;;;19.80;99.90;;;;;;4998526;28;20026;-69
2021/07/08 07:16:16;;;;;;;7.63;2.85;;;19.90;99.90;;;;;;4997594;28;20030;-68
2021/07/08 07:18:43;;;;;;;4.88;2.80;;;19.90;99.90;;;;;;4979768;28;20146;-72
2021/07/08 07:21:12;;;;;;;6.30;3.00;;;20.00;99.90;;;;;;4981069;28;20034;-72
2021/07/08 07:23:39;;;;;;;7.65;2.75;;;20.00;99.90;;;;;;4997867;28;20499;-71
2021/07/08 07:26:09;;;;;;;5.20;2.95;;;20.00;99.90;;;;;;4997868;28;20032;-72
2021/07/08 07:28:35;;;;;;;5.28;3.00;;;20.00;99.90;;;;;;4997212;28;20097;-68
2021/07/08 07:31:00;;;;;;;5.45;2.75;;;20.00;99.90;;;;;;4997188;28;20037;-69
2021/07/08 07:33:28;;;;;;;4.95;2.80;;;20.00;99.90;;;;;;4994614;28;20105;-69
2021/07/08 07:35:54;;;;;;;5.00;3.17;;;20.10;99.90;;;;;;4985959;28;20038;-69
2021/07/08 07:38:21;;;;;;;6.85;3.97;;;20.10;99.90;;;;;;4997375;28;20034;-69
2021/07/08 07:40:46;;;;;;;6.57;3.78;;;20.10;99.90;;;;;;4998177;28;20368;-72
2021/07/08 07:43:14;;;;;;;7.18;3.40;;;20.10;99.90;;;;;;4997730;28;20033;-72
2021/07/08 07:45:41;;;;;;;5.50;3.83;;;20.20;99.90;;;;;;4977245;28;20180;-72
2021/07/08 07:48:10;;;;;;;6.32;3.80;;;20.20;99.90;;;;;;4984183;28;20396;-69
2021/07/08 07:50:36;;;;;;;5.72;3.47;;;20.20;99.90;;;;;;4996090;28;20099;-69
2021/07/08 07:53:07;;;;;;;6.07;3.67;;;20.30;99.90;;;;;;4977484;28;20045;-69
2021/07/08 07:55:35;;;;;;;8.20;3.70;;;20.30;99.90;;;;;;4963415;28;20135;-69
2021/07/08 07:58:01;;;;;;;7.22;4.00;;;20.40;99.90;;;;;;4996610;28;20065;-69
2021/07/08 08:00:32;;;;;;;6.82;3.90;;;20.40;99.90;;;;;;4997346;28;20038;-69
2021/07/08 08:03:00;;;;;;;7.40;3.80;;;20.70;99.90;;;;;;4997516;28;20026;-69
2021/07/08 08:10:37;;;;;;;8.38;3.53;;;20.70;99.90;;;;;;4996510;28;21482;-69
2021/07/08 08:13:06;;;;;;;6.28;3.72;;;20.80;99.90;;;;;;4995102;28;20037;-72
2021/07/08 08:15:36;;;;;;;4.85;3.20;;;20.80;99.90;;;;;;4964962;28;20029;-72
2021/07/08 08:18:02;;;;;;;6.13;3.20;;;20.80;99.90;;;;;;4996857;28;20499;-69
2021/07/08 08:20:31;;;;;;;8.68;3.78;;;20.80;99.90;;;;;;4996033;28;20195;-69
2021/07/08 08:22:57;;;;;;;6.25;3.40;;;20.80;99.90;;;;;;4981028;28;20034;-69
2021/07/08 08:25:23;;;;;;;6.30;3.80;;;20.80;99.90;;;;;;4980494;28;20034;-69
2021/07/08 08:27:53;;;;;;;6.28;3.30;;;20.80;99.90;;;;;;4995639;28;20030;-69
2021/07/08 08:30:21;;;;;;;7.40;3.20;;;20.90;99.90;;;;;;4981993;28;20372;-69
2021/07/08 08:32:47;;;;;;;8.15;3.28;;;20.90;99.90;;;;;;4978473;28;20037;-69
2021/07/08 08:35:15;;;;;;;6.72;3.10;;;20.90;99.90;;;;;;4996113;28;20341;-69
2021/07/08 08:37:43;;;;;;;7.35;3.25;;;21.00;99.90;;;;;;4976847;28;20706;-69
2021/07/08 08:40:11;;;;;;;7.38;3.00;;;21.10;99.90;;;;;;4978069;28;20944;-69
2021/07/08 08:42:37;;;;;;;6.10;3.30;;;21.20;99.90;;;;;;4951597;28;20041;-70
2021/07/08 08:45:11;;;;;;;7.38;3.17;;;21.40;99.90;;;;;;4964426;28;20052;-69
2021/07/08 08:47:52;;;;;;;6.10;3.10;;;21.60;99.90;;;;;;4995805;28;20026;-69
2021/07/08 08:50:17;;;;;;;6.70;3.45;;;21.90;99.90;;;;;;4981507;28;20022;-69
2021/07/08 08:52:43;;;;;;;7.43;3.30;;;22.00;99.90;;;;;;4960558;28;20022;-69
2021/07/08 08:55:10;;;;;;;7.13;3.08;;;22.10;99.90;;;;;;4981514;28;20058;-69
2021/07/08 08:57:35;;;;;;;4.70;2.53;;;22.10;99.90;;;;;;4972498;28;20073;-69
2021/07/08 09:00:01;;;;;;;6.15;2.60;;;22.30;99.90;;;;;;4978141;28;20389;-69
2021/07/08 09:02:29;;;;;;;5.90;2.70;;;22.20;99.90;;;;;;4976247;28;20067;-69
2021/07/08 09:04:55;;;;;;;6.55;2.60;;;22.30;99.90;;;;;;4976400;28;20045;-69
2021/07/08 09:07:28;;;;;;;5.30;2.65;;;22.40;99.90;;;;;;4976849;28;20062;-69
2021/07/08 09:10:12;;;;;;;4.53;2.60;;;22.50;99.90;;;;;;4977839;28;20045;-73
2021/07/08 09:12:38;;;;;;;5.13;2.80;;;22.40;99.90;;;;;;4972922;28;20624;-73
2021/07/08 09:15:17;;;;;;;5.03;2.72;;;22.40;99.90;;;;;;4978148;28;20048;-73
2021/07/08 09:17:43;;;;;;;5.78;2.40;;;22.40;99.90;;;;;;4972722;28;20034;-75
2021/07/08 09:20:19;;;;;;;5.40;2.50;;;22.50;99.90;;;;;;4942826;28;20473;-74
2021/07/08 09:22:45;;;;;;;4.75;2.47;;;22.60;99.90;;;;;;4976121;28;20110;-73
2021/07/08 09:25:20;;;;;;;5.88;2.58;;;22.60;99.90;;;;;;4971380;28;20045;-73
2021/07/08 09:28:09;;;;;;;5.05;2.65;;;22.60;99.90;;;;;;4990007;28;20077;-74
2021/07/08 09:30:35;;;;;;;5.35;2.20;;;22.70;99.90;;;;;;4960619;28;20039;-74
2021/07/08 09:33:01;;;;;;;5.90;2.63;;;22.70;99.90;;;;;;4977778;28;20030;-68
2021/07/08 09:35:34;;;;;;;5.70;2.83;;;22.60;99.90;;;;;;4976466;28;20117;-69
2021/07/08 09:38:13;;;;;;;9.63;5.15;;;22.70;99.90;;;;;;4974806;28;20464;-73
2021/07/08 09:40:42;;;;;;;5.28;2.53;;;22.70;99.90;;;;;;4962838;28;20101;-73
2021/07/08 09:57:48;;;;;;;5.85;1.90;;;22.80;99.90;;;;;;5043768;28;20503;-69
2021/07/08 10:00:22;;;;;;;4.10;2.67;;;22.90;99.90;;;;;;5041971;28;20090;-67
2021/07/08 10:02:52;;;;;;;4.78;2.90;;;23.00;99.90;;;;;;5043245;28;20056;-73
2021/07/08 10:05:25;;;;;;;4.18;2.00;;;22.90;99.90;;;;;;5057804;28;20110;-74
2021/07/08 10:07:50;;;;;;;4.30;2.20;;;22.90;99.90;;;;;;5042174;28;20029;-74
2021/07/08 10:10:18;;;;;;;3.85;2.10;;;23.00;99.90;;;;;;5041390;28;20054;-72
2021/07/08 10:12:48;;;;;;;4.40;2.15;;;23.10;99.90;;;;;;5042982;28;20039;-73
2021/07/08 10:15:14;;;;;;;3.75;1.95;;;23.30;99.90;;;;;;5040523;28;20114;-73
2021/07/08 10:17:40;;;;;;;4.65;2.20;;;23.40;99.90;;;;;;5073819;28;20051;-74
2021/07/08 10:20:11;;;;;;;4.88;2.22;;;23.50;99.90;;;;;;5041171;28;20030;-73
2021/07/08 10:22:37;;;;;;;4.50;2.03;;;23.60;99.90;;;;;;5042003;28;20687;-73
2021/07/08 10:25:10;;;;;;;5.88;2.22;;;23.70;99.90;;;;;;5039779;28;20107;-74
2021/07/08 10:27:36;;;;;;;6.25;2.30;;;23.80;99.90;;;;;;5040153;28;20037;-73
2021/07/08 10:30:02;;;;;;;8.23;3.60;;;23.80;99.90;;;;;;5040558;28;20028;-73
2021/07/08 10:32:28;;;;;;;4.10;2.15;;;23.90;99.90;;;;;;5040812;28;21950;-73
2021/07/08 10:34:56;;;;;;;4.07;2.25;;;23.90;99.90;;;;;;5024309;28;20033;-74
2021/07/08 10:37:25;;;;;;;5.70;2.20;;;24.00;99.90;;;;;;5039071;28;20026;-74
2021/07/08 10:39:53;;;;;;;5.38;2.33;;;24.00;99.90;;;;;;5041471;28;20033;-74
2021/07/08 10:42:44;;;;;;;4.43;1.73;;;24.00;99.90;;;;;;5031817;28;20035;-73
2021/07/08 10:45:22;;;;;;;2.80;1.60;;;23.90;89.10;;;;;;5041935;28;20025;-73
2021/07/08 10:47:50;;;;;;;4.22;1.73;;;24.00;94.10;;;;;;5040717;28;20025;-73
2021/07/08 10:50:38;;;;;;;4.18;1.80;;;24.10;99.90;;;;;;5041174;28;20048;-73
2021/07/08 10:53:21;;;;;;;4.93;2.30;;;24.10;99.90;;;;;;5039317;28;20025;-74
2021/07/08 10:55:49;;;;;;;4.10;2.00;;;24.20;95.60;;;;;;5041719;28;20143;-74
2021/07/08 10:58:34;;;;;;;3.85;2.00;;;24.20;99.10;;;;;;5040100;28;20358;-74
2021/07/08 11:00:59;;;;;;;4.80;2.05;;;24.30;99.30;;;;;;5041022;28;20620;-74
2021/07/08 11:03:39;;;;;;;5.78;2.00;;;24.40;99.90;;;;;;5040400;28;20029;-74
2021/07/08 11:06:20;;;;;;;3.85;2.00;;;24.40;99.90;;;;;;5023525;28;20028;-73
2021/07/08 11:08:49;;;;;;;4.07;2.20;;;24.40;93.40;;;;;;5030211;28;20091;-74
2021/07/08 11:11:21;;;;;;;5.28;2.20;;;24.40;99.10;;;;;;5028370;28;20039;-74
2021/07/08 11:13:50;;;;;;;6.10;1.95;;;24.30;94.70;;;;;;5014424;28;20127;-73
2021/07/08 11:16:53;;;;;;;5.93;2.00;;;24.30;99.90;;;;;;5027888;28;20082;-74
2021/07/08 11:19:24;;;;;;;4.80;2.03;;;24.30;99.20;;;;;;5026723;28;20025;-74
2021/07/08 11:21:55;;;;;;;4.60;2.05;;;24.30;95.60;;;;;;5027051;28;20027;-74
2021/07/08 11:24:22;;;;;;;4.18;2.10;;;24.20;96.30;;;;;;5025168;28;20053;-74
2021/07/08 11:27:00;;;;;;;3.90;2.05;;;24.10;94.50;;;;;;5025240;28;20045;-68
2021/07/08 11:29:34;;;;;;;4.28;2.10;;;24.10;92.20;;;;;;5027814;28;20048;-72
2021/07/08 11:32:00;;;;;;;3.70;2.00;;;24.10;98.00;;;;;;5026273;28;20030;-78
2021/07/08 11:34:26;;;;;;;4.18;1.90;;;24.10;96.20;;;;;;5025227;28;20029;-74
2021/07/08 11:36:54;;;;;;;5.90;1.80;;;24.20;99.90;;;;;;5027118;28;20107;-73
2021/07/08 11:39:20;;;;;;;3.40;1.90;;;24.30;99.90;;;;;;4679363;28;9999868;-73
2021/07/08 11:41:47;;;;;;;4.50;2.10;;;24.50;99.90;;;;;;5025866;28;20361;-73
2021/07/08 11:44:12;;;;;;;3.70;1.80;;;24.60;99.90;;;;;;5008654;28;20025;-73
2021/07/08 11:46:40;;;;;;;4.53;1.88;;;24.60;99.70;;;;;;5025104;28;20025;-74
2021/07/08 11:49:06;;;;;;;4.05;1.80;;;24.60;95.60;;;;;;5023614;28;20025;-73
2021/07/08 11:51:32;;;;;;;3.97;1.85;;;24.60;99.90;;;;;;5007290;28;20041;-74
2021/07/08 11:54:01;;;;;;;4.07;2.00;;;24.60;92.80;;;;;;4990300;28;20033;-74
2021/07/08 11:56:27;;;;;;;4.47;2.00;;;24.40;91.50;;;;;;5022242;28;20601;-74
2021/07/08 11:58:53;;;;;;;4.50;1.88;;;24.20;94.90;;;;;;5026329;28;20966;-74
2021/07/08 12:01:19;;;;;;;4.02;1.76;;;24.20;97.30;;;;;;4678775;28;10000823;-68
2021/07/08 12:03:54;;;;;;;7.32;2.00;;;24.20;99.90;;;;;;5026768;28;20040;-68
2021/07/08 12:06:30;;;;;;;4.78;2.45;;;24.20;99.70;;;;;;5023999;28;20080;-74
2021/07/08 12:08:58;;;;;;;4.30;2.05;;;24.10;99.90;;;;;;5024693;28;20083;-74
2021/07/08 12:11:32;;;;;;;6.28;2.00;;;24.10;99.90;;;;;;5024958;28;20049;-74
2021/07/08 12:14:05;;;;;;;5.90;2.38;;;23.90;99.90;;;;;;5025886;28;20565;-74
2021/07/08 12:16:35;;;;;;;6.65;2.30;;;23.90;99.90;;;;;;5028907;28;20099;-74
2021/07/08 12:19:18;;;;;;;4.93;2.40;;;23.80;99.90;;;;;;5024626;28;20144;-74
2021/07/08 12:21:44;;;;;;;5.93;2.00;;;23.70;99.90;;;;;;5025474;28;20053;-74
2021/07/08 12:24:18;;;;;;;5.15;1.90;;;23.60;99.90;;;;;;5016317;28;20178;-74
2021/07/08 12:26:44;;;;;;;4.50;2.03;;;23.60;99.90;;;;;;5023997;28;20026;-74
2021/07/08 12:29:14;;;;;;;6.03;2.10;;;23.60;99.90;;;;;;5024835;28;20152;-74
2021/07/08 12:31:47;;;;;;;5.70;2.00;;;23.50;99.90;;;;;;5024854;28;20033;-74
2021/07/08 12:34:13;;;;;;;4.97;2.00;;;23.40;99.90;;;;;;5057791;28;20120;-74
2021/07/08 12:36:38;;;;;;;6.35;2.38;;;23.40;99.90;;;;;;5026850;28;20021;-74
2021/07/08 12:39:04;;;;;;;6.13;2.00;;;23.40;99.90;;;;;;5025161;28;20065;-74
2021/07/08 12:41:30;;;;;;;7.53;2.67;;;23.30;99.90;;;;;;5025180;28;20860;-74
2021/07/08 12:43:59;;;;;;;4.88;1.90;;;23.30;99.90;;;;;;5024484;28;20021;-74
2021/07/08 12:46:31;;;;;;;8.80;2.40;;;23.30;99.90;;;;;;5025548;28;20182;-74
2021/07/08 12:48:57;;;;;;;3.38;2.03;;;23.40;99.90;;;;;;5042678;28;20037;-74
2021/07/08 12:51:27;;;;;;;5.15;2.00;;;23.40;99.90;;;;;;5008460;28;20033;-74
2021/07/08 12:53:55;;;;;;;4.40;1.90;;;23.40;99.90;;;;;;5009387;28;20111;-74
2021/07/08 12:56:23;;;;;;;6.25;2.10;;;23.50;99.90;;;;;;5025656;28;20046;-74
2021/07/08 12:59:02;;;;;;;5.47;2.00;;;23.50;99.90;;;;;;5025190;28;20021;-74
2021/07/08 13:01:31;;;;;;;4.10;2.08;;;23.60;99.90;;;;;;5040848;28;20694;-68
2021/07/08 13:03:57;;;;;;;8.77;3.90;;;23.50;99.90;;;;;;5026404;28;20585;-68
2021/07/08 13:06:30;;;;;;;7.68;3.95;;;23.60;99.90;;;;;;5025131;28;20383;-74
2021/07/08 13:09:09;;;;;;;7.07;2.40;;;23.70;99.90;;;;;;5027071;28;20052;-74
2021/07/08 13:11:39;;;;;;;5.13;2.20;;;23.70;99.90;;;;;;5009288;28;20041;-74
2021/07/08 13:14:25;;;;;;;4.72;2.10;;;23.60;99.90;;;;;;5024592;28;20130;-74